Accueil
METAR-TAF:

METAR-TAF

Aéroports :

Teller, Alaska, États-Unis

latitude: 65-14-25N, longitude: 166-20-22W, altitude: 90 m

Observation

Le bulletin a été fait il y a 4 minutes, à 07:56 UTC
Vent 11 kt de est
Température -20°C
Humidité 77%
Pression 1009 hPa
Visibilité: 16.1 km
Ciel clair

METAR: PATE 060756Z AUTO 10011KT 10SM CLR M20/M23 A2979 RMK AO2 SLP101 T12001233 FZRANO

Heure: 23:00 (08:00 UTC)


TAF: absent

Observations et prévisions météorologiques de plus de 4000 aéroports (messages METAR et TAF).

Les stations disponibles sont représentées par des disques jaunes et rouges sur la carte.

Passer la souris dessus pour voir le nom de la station.

Cliquer dessus pour voir les observations et prévisions météorologiques.

Pour changer de carte: cliquez sur les boutons verts avec une croix noire pour zoomer, sur le bouton vert avec un tiret pour effectuer un zoom arrière, ou sur les flèches vertes pour les cartes adjacentes.


METAR-TAF: